createdAt,value
2023-01-19T00:00:30.275Z,8.07
2023-01-19T00:02:57.919Z,7.07
2023-01-19T00:05:25.379Z,7.47
2023-01-19T00:07:52.856Z,7.70
2023-01-19T00:10:20.527Z,8.20
2023-01-19T00:12:47.646Z,8.07
2023-01-19T00:15:15.311Z,8.37
2023-01-19T00:17:42.801Z,7.80
2023-01-19T00:20:11.175Z,7.73
2023-01-19T00:22:38.300Z,8.30
2023-01-19T00:25:05.841Z,8.23
2023-01-19T00:27:35.122Z,7.77
2023-01-19T00:30:02.852Z,8.37
2023-01-19T00:32:30.174Z,8.10
2023-01-19T00:34:57.683Z,7.90
2023-01-19T00:37:25.323Z,8.60
2023-01-19T00:39:52.701Z,8.83
2023-01-19T00:42:38.466Z,8.40
2023-01-19T00:45:07.062Z,9.20
2023-01-19T00:47:34.946Z,9.67
2023-01-19T00:50:02.465Z,9.13
2023-01-19T00:52:29.935Z,10.03
2023-01-19T00:54:57.339Z,9.50
2023-01-19T00:57:24.477Z,9.10
2023-01-19T00:59:51.655Z,9.27
2023-01-19T01:02:18.905Z,9.87
2023-01-19T01:04:46.716Z,10.53
2023-01-19T01:07:14.579Z,10.47
2023-01-19T01:09:41.714Z,9.63
2023-01-19T01:12:09.273Z,10.97
2023-01-19T01:14:37.016Z,10.70
2023-01-19T01:17:04.543Z,10.77
2023-01-19T01:19:31.691Z,10.20
2023-01-19T01:21:58.953Z,10.53
2023-01-19T01:24:26.199Z,11.00
2023-01-19T01:26:53.587Z,10.77
2023-01-19T01:29:21.282Z,10.23
2023-01-19T01:31:48.504Z,11.40
2023-01-19T01:34:16.879Z,11.30
2023-01-19T01:36:44.431Z,11.70
2023-01-19T01:39:11.832Z,10.97
2023-01-19T01:41:39.206Z,11.23
2023-01-19T01:44:50.098Z,11.23
2023-01-19T01:47:40.386Z,11.27
2023-01-19T01:50:15.754Z,11.40
2023-01-19T01:53:06.319Z,11.43
2023-01-19T01:55:46.577Z,11.17
2023-01-19T01:58:13.789Z,12.23
2023-01-19T02:00:59.884Z,10.17
2023-01-19T02:03:27.543Z,11.47
2023-01-19T02:05:57.694Z,11.40
2023-01-19T02:09:09.641Z,11.90
2023-01-19T02:11:55.479Z,11.50
2023-01-19T02:14:22.734Z,11.70
2023-01-19T02:16:50.244Z,11.67
2023-01-19T02:19:21.023Z,10.17
2023-01-19T02:21:59.862Z,12.30
2023-01-19T02:24:28.399Z,12.63
2023-01-19T02:26:55.621Z,12.17
2023-01-19T02:29:24.302Z,12.70
2023-01-19T02:31:51.552Z,11.77
2023-01-19T02:34:20.870Z,12.67
2023-01-19T02:37:03.858Z,12.63
2023-01-19T02:39:39.107Z,12.30
2023-01-19T02:42:12.041Z,11.50
2023-01-19T02:44:39.845Z,11.57
2023-01-19T02:47:07.004Z,12.17
2023-01-19T02:49:34.470Z,11.73
2023-01-19T02:52:01.869Z,13.07
2023-01-19T02:54:42.135Z,11.80
2023-01-19T02:57:35.022Z,11.47
2023-01-19T03:00:21.119Z,12.10
2023-01-19T03:03:00.809Z,12.93
2023-01-19T03:05:55.261Z,12.73
2023-01-19T03:08:45.594Z,12.80
2023-01-19T03:11:13.564Z,11.70
2023-01-19T03:14:01.842Z,12.53
2023-01-19T03:16:55.590Z,12.30
2023-01-19T03:19:48.917Z,11.33
2023-01-19T03:22:24.242Z,12.40
2023-01-19T03:24:51.533Z,12.73
2023-01-19T03:27:23.298Z,12.60
2023-01-19T03:29:53.464Z,13.67
2023-01-19T03:32:21.968Z,12.60
2023-01-19T03:34:49.178Z,13.33
2023-01-19T03:37:16.893Z,12.37
2023-01-19T03:39:44.078Z,14.37
2023-01-19T03:42:13.905Z,13.47
2023-01-19T03:44:41.723Z,13.83
2023-01-19T03:47:10.345Z,13.10
2023-01-19T03:49:37.954Z,12.97
2023-01-19T03:52:05.703Z,12.50
2023-01-19T03:54:33.229Z,12.57
2023-01-19T03:57:00.821Z,12.40
2023-01-19T03:59:28.368Z,12.87
2023-01-19T04:01:55.867Z,13.80
2023-01-19T04:04:23.174Z,12.60
2023-01-19T04:06:50.458Z,11.93
2023-01-19T04:09:19.342Z,14.00
2023-01-19T04:11:47.621Z,13.13
2023-01-19T04:14:14.983Z,13.20
2023-01-19T04:16:42.389Z,13.63
2023-01-19T04:19:09.799Z,13.03
2023-01-19T04:21:37.342Z,13.43
2023-01-19T04:24:04.550Z,12.33
2023-01-19T04:26:31.676Z,13.30
2023-01-19T04:28:59.232Z,14.27
2023-01-19T04:31:26.505Z,12.53
2023-01-19T04:33:53.969Z,12.83
2023-01-19T04:36:21.172Z,12.90
2023-01-19T04:38:48.793Z,12.37
2023-01-19T04:41:16.346Z,13.97
2023-01-19T04:43:43.776Z,13.70
2023-01-19T04:46:11.145Z,13.47
2023-01-19T04:48:39.649Z,13.57
2023-01-19T04:51:09.413Z,13.07
2023-01-19T04:53:36.790Z,12.70
2023-01-19T04:56:04.261Z,12.60
2023-01-19T04:58:31.564Z,13.57
2023-01-19T05:00:59.085Z,14.30
2023-01-19T05:03:27.164Z,13.87
2023-01-19T05:05:54.671Z,13.93
2023-01-19T05:08:22.345Z,14.57
2023-01-19T05:10:49.667Z,13.27
2023-01-19T05:13:17.086Z,14.53
2023-01-19T05:15:44.576Z,14.00
2023-01-19T05:18:12.043Z,13.17
2023-01-19T05:20:40.309Z,12.77
2023-01-19T05:23:07.697Z,10.93
2023-01-19T05:25:35.064Z,10.87
2023-01-19T05:28:03.313Z,12.17
2023-01-19T05:30:30.723Z,12.20
2023-01-19T05:32:58.765Z,10.90
2023-01-19T05:35:35.554Z,11.67
2023-01-19T05:38:03.950Z,9.70
2023-01-19T05:40:31.655Z,11.43
2023-01-19T05:43:02.198Z,12.90
2023-01-19T05:45:29.812Z,11.27
2023-01-19T05:47:57.438Z,12.03
2023-01-19T05:50:25.783Z,10.50
2023-01-19T05:52:55.999Z,10.27
2023-01-19T05:55:23.445Z,11.50
2023-01-19T05:57:50.777Z,11.30
2023-01-19T06:00:18.511Z,10.97
2023-01-19T06:02:48.268Z,9.73
2023-01-19T06:05:16.757Z,11.30
2023-01-19T06:07:44.232Z,11.20
2023-01-19T06:10:12.026Z,11.17
2023-01-19T06:12:42.505Z,11.77
2023-01-19T06:15:10.045Z,10.90
2023-01-19T06:17:37.545Z,10.27
2023-01-19T06:20:05.845Z,11.10
2023-01-19T06:22:33.391Z,11.10
2023-01-19T06:25:00.913Z,9.80
2023-01-19T06:27:28.343Z,11.00
2023-01-19T06:29:55.828Z,11.30
2023-01-19T06:32:23.306Z,10.23
2023-01-19T06:34:52.716Z,11.30
2023-01-19T06:37:21.276Z,10.57
2023-01-19T06:39:48.715Z,10.07
2023-01-19T06:42:16.044Z,10.30
2023-01-19T06:44:47.731Z,11.10
2023-01-19T06:47:16.326Z,10.20
2023-01-19T06:49:44.329Z,10.00
2023-01-19T06:52:16.310Z,10.13
2023-01-19T06:54:45.572Z,10.87
2023-01-19T06:57:14.058Z,9.80
2023-01-19T06:59:41.716Z,9.07
2023-01-19T07:02:27.864Z,10.17
2023-01-19T07:04:57.037Z,8.70
2023-01-19T07:07:24.508Z,8.27
2023-01-19T07:09:53.931Z,7.17
2023-01-19T07:12:22.857Z,6.83
2023-01-19T07:14:50.483Z,6.33
2023-01-19T07:17:17.773Z,6.67
2023-01-19T07:19:46.856Z,6.40
2023-01-19T07:22:14.865Z,7.53
2023-01-19T07:24:42.315Z,9.40
2023-01-19T07:27:11.855Z,10.07
2023-01-19T07:29:39.477Z,7.73
2023-01-19T07:32:07.866Z,7.27
2023-01-19T07:34:36.496Z,8.10
2023-01-19T07:37:04.735Z,7.50
2023-01-19T07:39:32.654Z,7.97
2023-01-19T07:42:00.366Z,6.87
2023-01-19T07:44:27.932Z,6.20
2023-01-19T07:46:55.320Z,6.33
2023-01-19T07:49:22.716Z,6.57
2023-01-19T07:51:50.216Z,7.10
2023-01-19T07:54:17.686Z,7.27
2023-01-19T07:56:45.162Z,6.37
2023-01-19T07:59:12.783Z,5.37
2023-01-19T08:01:40.928Z,4.80
2023-01-19T08:04:08.555Z,5.00
2023-01-19T08:06:37.413Z,4.13
2023-01-19T08:09:09.100Z,5.20
2023-01-19T08:11:36.992Z,4.97
2023-01-19T08:14:06.885Z,4.93
2023-01-19T08:16:35.794Z,6.83
2023-01-19T08:19:04.115Z,19.47
2023-01-19T08:21:33.531Z,8.50
2023-01-19T08:24:00.821Z,9.77
2023-01-19T08:26:33.324Z,10.03
2023-01-19T08:29:02.674Z,6.47
2023-01-19T08:31:30.447Z,6.93
2023-01-19T08:33:58.078Z,7.33
2023-01-19T08:36:25.498Z,16.00
2023-01-19T08:38:53.664Z,11.83
2023-01-19T08:41:21.446Z,8.47
2023-01-19T08:43:49.802Z,9.53
2023-01-19T08:46:17.868Z,7.07
2023-01-19T08:48:51.174Z,5.73
2023-01-19T08:51:18.734Z,20.47
2023-01-19T08:53:46.203Z,5.10
2023-01-19T08:56:14.134Z,6.20
2023-01-19T08:58:43.099Z,5.77
2023-01-19T09:01:11.187Z,14.03
2023-01-19T09:03:38.692Z,5.60
2023-01-19T09:06:07.440Z,7.37
2023-01-19T09:08:35.254Z,6.70
2023-01-19T09:11:02.580Z,8.90
2023-01-19T09:13:29.900Z,9.73
2023-01-19T09:15:57.540Z,10.67
2023-01-19T09:18:25.061Z,9.77
2023-01-19T09:20:52.212Z,12.50
2023-01-19T09:23:20.676Z,8.73
2023-01-19T09:25:48.533Z,12.93
2023-01-19T09:28:17.930Z,16.30
2023-01-19T09:30:45.622Z,17.87
2023-01-19T09:33:15.029Z,7.13
2023-01-19T09:35:42.701Z,6.37
2023-01-19T09:38:10.868Z,12.37
2023-01-19T09:40:42.827Z,6.00
2023-01-19T09:43:40.127Z,6.43
2023-01-19T09:46:22.357Z,6.70
2023-01-19T09:48:54.601Z,6.93
2023-01-19T09:51:28.129Z,7.93
2023-01-19T09:54:00.158Z,7.17
2023-01-19T09:56:28.660Z,9.03
2023-01-19T09:58:55.778Z,5.47
2023-01-19T10:01:46.765Z,9.97
2023-01-19T10:04:29.290Z,7.60
2023-01-19T10:07:31.179Z,8.57
2023-01-19T10:10:17.431Z,8.43
2023-01-19T10:13:08.320Z,14.43
2023-01-19T10:15:47.312Z,9.70
2023-01-19T10:18:14.804Z,9.53
2023-01-19T10:20:56.722Z,8.97
2023-01-19T10:23:37.754Z,8.47
2023-01-19T10:26:20.884Z,8.17
2023-01-19T10:28:49.504Z,7.07
2023-01-19T10:31:18.808Z,8.07
2023-01-19T10:33:46.376Z,8.30
2023-01-19T10:36:17.909Z,9.23
2023-01-19T10:38:45.710Z,14.97
2023-01-19T10:41:20.133Z,8.17
2023-01-19T10:43:48.159Z,8.40
2023-01-19T10:46:24.107Z,7.20
2023-01-19T10:48:52.972Z,12.60
2023-01-19T10:51:20.489Z,8.03
2023-01-19T10:53:59.077Z,9.40
2023-01-19T10:56:30.880Z,7.13
2023-01-19T10:59:00.179Z,7.60
2023-01-19T11:01:28.609Z,9.57
2023-01-19T11:04:03.729Z,7.33
2023-01-19T11:06:31.598Z,9.07
2023-01-19T11:09:13.119Z,8.43
2023-01-19T11:11:48.382Z,6.90
2023-01-19T11:14:18.226Z,7.30
2023-01-19T11:16:53.682Z,8.03
2023-01-19T11:19:32.048Z,8.70
2023-01-19T11:22:25.243Z,8.27
2023-01-19T11:24:53.025Z,8.57
2023-01-19T11:27:20.892Z,7.63
2023-01-19T11:29:59.460Z,8.33
2023-01-19T11:32:27.006Z,9.13
2023-01-19T11:34:54.408Z,9.10
2023-01-19T11:37:21.530Z,7.90
2023-01-19T11:39:49.654Z,7.10
2023-01-19T11:42:17.174Z,7.37
2023-01-19T11:45:01.565Z,7.53
2023-01-19T11:47:47.392Z,8.53
2023-01-19T11:50:16.493Z,7.67
2023-01-19T11:53:23.497Z,8.57
2023-01-19T11:56:07.544Z,6.90
2023-01-19T11:58:44.772Z,7.50
2023-01-19T12:01:32.231Z,7.20
2023-01-19T12:04:10.767Z,7.00
2023-01-19T12:06:45.165Z,7.03
2023-01-19T12:09:16.063Z,7.47
2023-01-19T12:12:04.423Z,9.67
2023-01-19T12:14:42.148Z,8.73
2023-01-19T12:17:14.690Z,8.43
2023-01-19T12:19:55.340Z,9.43
2023-01-19T12:22:23.073Z,7.73
2023-01-19T12:24:54.712Z,6.83
2023-01-19T12:27:38.271Z,6.97
2023-01-19T12:30:06.357Z,8.50
2023-01-19T12:32:35.561Z,7.23
2023-01-19T12:35:03.389Z,11.17
2023-01-19T12:37:38.866Z,7.40
2023-01-19T12:40:19.991Z,6.90
2023-01-19T12:42:48.499Z,6.93
2023-01-19T12:45:25.573Z,9.47
2023-01-19T12:47:56.075Z,8.63
2023-01-19T12:50:26.321Z,7.67
2023-01-19T12:52:58.834Z,11.07
2023-01-19T12:55:33.693Z,7.50
2023-01-19T12:58:18.045Z,10.07
2023-01-19T13:00:49.671Z,7.83
2023-01-19T13:03:19.990Z,7.40
2023-01-19T13:05:53.035Z,8.10
2023-01-19T13:08:25.499Z,6.90
2023-01-19T13:11:11.122Z,6.93
2023-01-19T13:13:44.548Z,7.57
2023-01-19T13:16:25.564Z,6.70
2023-01-19T13:18:59.749Z,7.40
2023-01-19T13:21:35.492Z,8.43
2023-01-19T13:24:17.031Z,6.70
2023-01-19T13:26:50.777Z,6.93
2023-01-19T13:29:30.524Z,6.60
2023-01-19T13:32:13.042Z,5.67
2023-01-19T13:34:43.028Z,7.03
2023-01-19T13:37:37.705Z,6.20
2023-01-19T13:40:05.935Z,6.40
2023-01-19T13:42:37.997Z,6.30
2023-01-19T13:45:34.551Z,8.33
2023-01-19T13:48:03.266Z,6.47
2023-01-19T13:50:32.151Z,5.73
2023-01-19T13:53:00.056Z,6.33
2023-01-19T13:55:28.485Z,7.83
2023-01-19T13:57:55.681Z,7.13
2023-01-19T14:00:25.311Z,6.37
2023-01-19T14:02:59.065Z,5.60
2023-01-19T14:05:29.210Z,6.23
2023-01-19T14:08:16.159Z,7.00
2023-01-19T14:11:02.680Z,6.47
2023-01-19T14:13:35.045Z,5.23
2023-01-19T14:16:11.263Z,8.03
2023-01-19T14:18:38.764Z,5.97
2023-01-19T14:21:14.123Z,7.53
2023-01-19T14:23:48.186Z,5.50
2023-01-19T14:26:50.192Z,4.60
2023-01-19T14:29:25.068Z,4.90
2023-01-19T14:32:01.660Z,6.23
2023-01-19T14:34:45.522Z,5.03
2023-01-19T14:37:17.186Z,6.27
2023-01-19T14:39:46.622Z,8.87
2023-01-19T14:42:22.761Z,6.73
2023-01-19T14:44:52.067Z,5.57
2023-01-19T14:47:33.251Z,5.30
2023-01-19T14:50:07.896Z,6.77
2023-01-19T14:52:40.614Z,6.53
2023-01-19T14:55:17.949Z,5.97
2023-01-19T14:57:45.528Z,6.07
2023-01-19T15:00:18.503Z,6.07
2023-01-19T15:02:46.796Z,5.43
2023-01-19T15:05:14.600Z,5.33
2023-01-19T15:07:43.485Z,6.00
2023-01-19T15:10:17.830Z,5.47
2023-01-19T15:12:45.747Z,7.80
2023-01-19T15:15:34.992Z,7.70
2023-01-19T15:18:03.207Z,8.03
2023-01-19T15:20:30.514Z,6.20
2023-01-19T15:22:57.977Z,6.20
2023-01-19T15:25:28.490Z,5.80
2023-01-19T15:27:58.521Z,5.60
2023-01-19T15:30:36.384Z,5.30
2023-01-19T15:33:03.823Z,5.00
2023-01-19T15:35:31.297Z,6.90
2023-01-19T15:37:58.700Z,6.83
2023-01-19T15:40:26.199Z,6.63
2023-01-19T15:42:53.963Z,8.80
2023-01-19T15:45:35.836Z,5.73
2023-01-19T15:48:08.179Z,7.73
2023-01-19T15:50:40.174Z,5.50
2023-01-19T15:53:07.824Z,6.47
2023-01-19T15:55:35.175Z,7.17
2023-01-19T15:58:02.661Z,5.73
2023-01-19T16:00:33.205Z,5.70
2023-01-19T16:03:01.865Z,6.30
2023-01-19T16:05:42.062Z,6.00
2023-01-19T16:08:11.587Z,6.97
2023-01-19T16:10:39.423Z,6.17
2023-01-19T16:13:06.949Z,19.57
2023-01-19T16:15:37.347Z,6.83
2023-01-19T16:18:05.375Z,6.40
2023-01-19T16:20:32.727Z,6.57
2023-01-19T16:23:13.884Z,6.40
2023-01-19T16:25:42.594Z,5.73
2023-01-19T16:28:09.973Z,6.50
2023-01-19T16:30:37.341Z,5.57
2023-01-19T16:33:05.733Z,6.00
2023-01-19T16:35:33.468Z,6.13
2023-01-19T16:38:00.900Z,6.50
2023-01-19T16:40:28.413Z,5.40
2023-01-19T16:42:55.844Z,9.20
2023-01-19T16:45:23.292Z,11.57
2023-01-19T16:47:52.584Z,9.63
2023-01-19T16:50:20.194Z,7.47
2023-01-19T16:52:47.606Z,9.60
2023-01-19T16:55:15.227Z,10.60
2023-01-19T16:57:42.836Z,9.03
2023-01-19T17:00:10.963Z,6.40
2023-01-19T17:02:38.693Z,6.00
2023-01-19T17:05:06.787Z,5.90
2023-01-19T17:07:34.185Z,6.50
2023-01-19T17:10:01.654Z,8.30
2023-01-19T17:12:31.372Z,7.43
2023-01-19T17:14:59.591Z,6.50
2023-01-19T17:17:27.080Z,6.23
2023-01-19T17:19:54.464Z,7.97
2023-01-19T17:22:22.092Z,7.83
2023-01-19T17:24:50.267Z,7.70
2023-01-19T17:27:17.996Z,12.40
2023-01-19T17:29:45.484Z,8.50
2023-01-19T17:32:13.028Z,7.83
2023-01-19T17:34:40.955Z,8.60
2023-01-19T17:37:08.385Z,7.33
2023-01-19T17:39:35.829Z,6.80
2023-01-19T17:42:03.274Z,6.70
2023-01-19T17:44:30.784Z,6.83
2023-01-19T17:46:59.939Z,7.40
2023-01-19T17:49:27.676Z,7.40
2023-01-19T17:51:56.380Z,6.57
2023-01-19T17:54:23.748Z,6.37
2023-01-19T17:56:51.434Z,5.47
2023-01-19T17:59:18.883Z,7.73
2023-01-19T18:01:46.846Z,6.50
2023-01-19T18:04:14.319Z,6.53
2023-01-19T18:06:41.857Z,6.67
2023-01-19T18:09:09.240Z,7.00
2023-01-19T18:11:36.714Z,8.13
2023-01-19T18:14:04.344Z,10.17
2023-01-19T18:16:32.840Z,8.53
2023-01-19T18:19:00.254Z,9.83
2023-01-19T18:21:28.633Z,10.63
2023-01-19T18:24:04.241Z,9.33
2023-01-19T18:26:32.219Z,11.07
2023-01-19T18:28:59.812Z,11.13
2023-01-19T18:31:27.696Z,11.20
2023-01-19T18:33:55.150Z,7.90
2023-01-19T18:36:22.922Z,7.77
2023-01-19T18:38:50.345Z,7.70
2023-01-19T18:41:19.400Z,8.57
2023-01-19T18:43:47.182Z,8.63
2023-01-19T18:46:14.917Z,8.73
2023-01-19T18:48:42.547Z,9.23
2023-01-19T18:51:14.005Z,11.97
2023-01-19T18:53:41.471Z,12.83
2023-01-19T18:56:09.063Z,12.20
2023-01-19T18:58:37.900Z,14.67
2023-01-19T19:01:05.646Z,13.63
2023-01-19T19:03:33.148Z,12.73
2023-01-19T19:06:04.074Z,12.13
2023-01-19T19:08:31.735Z,11.87
2023-01-19T19:10:58.977Z,12.70
2023-01-19T19:13:26.346Z,16.27
2023-01-19T19:15:54.153Z,12.33
2023-01-19T19:18:21.581Z,13.10
2023-01-19T19:20:48.992Z,11.83
2023-01-19T19:23:16.571Z,11.77
2023-01-19T19:25:43.940Z,10.90
2023-01-19T19:28:11.352Z,11.63
2023-01-19T19:30:39.279Z,11.30
2023-01-19T19:33:08.085Z,10.77
2023-01-19T19:35:35.674Z,11.50
2023-01-19T19:38:03.360Z,9.70
2023-01-19T19:40:30.675Z,10.70
2023-01-19T19:42:58.925Z,9.47
2023-01-19T19:45:26.668Z,8.50
2023-01-19T19:47:54.325Z,7.40
2023-01-19T19:50:21.697Z,10.27
2023-01-19T19:52:49.643Z,9.30
2023-01-19T19:55:17.167Z,9.77
2023-01-19T19:57:44.548Z,9.30
2023-01-19T20:00:12.667Z,8.40
2023-01-19T20:02:40.225Z,10.23
2023-01-19T20:05:07.988Z,10.50
2023-01-19T20:07:35.509Z,10.17
2023-01-19T20:10:02.948Z,10.40
2023-01-19T20:12:30.267Z,11.37
2023-01-19T20:14:57.819Z,11.33
2023-01-19T20:17:25.324Z,9.53
2023-01-19T20:19:52.693Z,10.23
2023-01-19T20:22:20.082Z,11.53
2023-01-19T20:24:47.516Z,11.07
2023-01-19T20:27:14.854Z,12.00
2023-01-19T20:29:42.267Z,9.87
2023-01-19T20:32:11.075Z,10.00
2023-01-19T20:34:38.814Z,8.03
2023-01-19T20:37:06.589Z,9.23
2023-01-19T20:39:35.653Z,8.30
2023-01-19T20:42:03.146Z,8.67
2023-01-19T20:44:31.175Z,8.13
2023-01-19T20:46:58.537Z,8.47
2023-01-19T20:49:26.162Z,9.50
2023-01-19T20:51:54.061Z,9.27
2023-01-19T20:54:23.495Z,9.60
2023-01-19T20:56:51.182Z,7.73
2023-01-19T20:59:21.768Z,8.03
2023-01-19T21:01:49.657Z,7.43
2023-01-19T21:04:17.904Z,7.33
2023-01-19T21:06:45.550Z,8.03
2023-01-19T21:09:12.875Z,7.60
2023-01-19T21:11:40.795Z,7.13
2023-01-19T21:14:08.268Z,7.77
2023-01-19T21:16:35.972Z,7.10
2023-01-19T21:19:03.833Z,7.33
2023-01-19T21:21:32.173Z,8.27
2023-01-19T21:24:00.698Z,8.73
2023-01-19T21:26:30.213Z,7.17
2023-01-19T21:28:58.671Z,7.40
2023-01-19T21:31:27.701Z,6.80
2023-01-19T21:33:56.118Z,6.73
2023-01-19T21:36:23.705Z,7.83
2023-01-19T21:38:52.664Z,7.83
2023-01-19T21:41:20.202Z,8.90
2023-01-19T21:43:47.701Z,9.80
2023-01-19T21:46:29.340Z,7.33
2023-01-19T21:49:00.232Z,8.07
2023-01-19T21:51:28.728Z,7.60
2023-01-19T21:54:00.431Z,8.70
2023-01-19T21:56:28.657Z,9.70
2023-01-19T21:58:56.949Z,8.17
2023-01-19T22:01:24.766Z,8.57
2023-01-19T22:03:56.032Z,8.30
2023-01-19T22:06:23.994Z,9.17
2023-01-19T22:08:51.588Z,9.33
2023-01-19T22:11:19.947Z,9.53
2023-01-19T22:13:47.701Z,10.57
2023-01-19T22:16:17.058Z,9.60
2023-01-19T22:18:46.297Z,8.83
2023-01-19T22:21:18.861Z,9.17
2023-01-19T22:23:49.335Z,9.23
2023-01-19T22:26:17.067Z,8.70
2023-01-19T22:29:14.770Z,7.93
2023-01-19T22:31:43.551Z,8.50
2023-01-19T22:34:11.397Z,10.03
2023-01-19T22:36:38.825Z,9.57
2023-01-19T22:39:10.546Z,9.23
2023-01-19T22:41:42.639Z,9.37
2023-01-19T22:44:15.062Z,8.13
2023-01-19T22:46:42.639Z,9.00
2023-01-19T22:49:11.479Z,7.73
2023-01-19T22:51:39.260Z,7.67
2023-01-19T22:54:06.838Z,8.40
2023-01-19T22:56:35.219Z,8.10
2023-01-19T22:59:02.613Z,7.30
2023-01-19T23:01:38.334Z,7.37
2023-01-19T23:04:06.239Z,6.53
2023-01-19T23:06:35.709Z,6.23
2023-01-19T23:09:05.600Z,6.17
2023-01-19T23:11:36.024Z,6.57
2023-01-19T23:14:04.508Z,6.70
2023-01-19T23:16:31.963Z,7.37
2023-01-19T23:18:59.668Z,7.67
2023-01-19T23:21:28.580Z,7.30
2023-01-19T23:23:58.706Z,6.83
2023-01-19T23:26:26.445Z,7.17
2023-01-19T23:28:58.387Z,7.00
2023-01-19T23:31:27.921Z,6.70
2023-01-19T23:33:57.125Z,6.40
2023-01-19T23:36:25.906Z,6.27
2023-01-19T23:38:55.988Z,6.33
2023-01-19T23:41:23.911Z,6.97
2023-01-19T23:43:51.451Z,6.90
2023-01-19T23:46:19.291Z,6.67
2023-01-19T23:48:46.676Z,6.50
2023-01-19T23:51:17.733Z,6.70
2023-01-19T23:53:45.117Z,6.40
2023-01-19T23:56:17.947Z,6.70
2023-01-19T23:58:46.502Z,6.37
